sensor_id;sensor_type;location;lat;lon;timestamp;P1;durP1;ratioP1;P2;durP2;ratioP2
49366;SDS011;35245;52.026;8.540;2022-11-20T00:01:31;35.65;;;19.73;;
49366;SDS011;35245;52.026;8.540;2022-11-20T00:03:58;35.78;;;19.05;;
49366;SDS011;35245;52.026;8.540;2022-11-20T00:06:26;29.58;;;19.13;;
49366;SDS011;35245;52.026;8.540;2022-11-20T00:08:55;31.38;;;19.10;;
49366;SDS011;35245;52.026;8.540;2022-11-20T00:11:24;30.80;;;18.38;;
49366;SDS011;35245;52.026;8.540;2022-11-20T00:13:54;29.38;;;18.75;;
49366;SDS011;35245;52.026;8.540;2022-11-20T00:16:24;30.33;;;18.95;;
49366;SDS011;35245;52.026;8.540;2022-11-20T00:18:55;32.65;;;19.58;;
49366;SDS011;35245;52.026;8.540;2022-11-20T00:21:22;34.58;;;19.95;;
49366;SDS011;35245;52.026;8.540;2022-11-20T00:23:51;35.95;;;20.77;;
49366;SDS011;35245;52.026;8.540;2022-11-20T00:26:22;34.25;;;21.13;;
49366;SDS011;35245;52.026;8.540;2022-11-20T00:28:53;34.72;;;20.02;;
49366;SDS011;35245;52.026;8.540;2022-11-20T00:31:22;31.95;;;18.67;;
49366;SDS011;35245;52.026;8.540;2022-11-20T00:33:50;30.93;;;18.83;;
49366;SDS011;35245;52.026;8.540;2022-11-20T00:36:20;35.33;;;20.52;;
49366;SDS011;35245;52.026;8.540;2022-11-20T00:38:50;32.67;;;19.57;;
49366;SDS011;35245;52.026;8.540;2022-11-20T00:41:18;35.15;;;19.08;;
49366;SDS011;35245;52.026;8.540;2022-11-20T00:43:46;34.22;;;19.85;;
49366;SDS011;35245;52.026;8.540;2022-11-20T00:46:14;36.03;;;20.95;;
49366;SDS011;35245;52.026;8.540;2022-11-20T00:48:44;37.95;;;22.98;;
49366;SDS011;35245;52.026;8.540;2022-11-20T00:51:12;37.13;;;21.25;;
49366;SDS011;35245;52.026;8.540;2022-11-20T00:53:43;39.97;;;22.75;;
49366;SDS011;35245;52.026;8.540;2022-11-20T00:56:12;35.47;;;22.98;;
49366;SDS011;35245;52.026;8.540;2022-11-20T00:58:42;36.75;;;22.60;;
49366;SDS011;35245;52.026;8.540;2022-11-20T01:01:11;39.05;;;23.05;;
49366;SDS011;35245;52.026;8.540;2022-11-20T01:03:41;40.88;;;24.75;;
49366;SDS011;35245;52.026;8.540;2022-11-20T01:06:10;36.45;;;23.35;;
49366;SDS011;35245;52.026;8.540;2022-11-20T01:08:40;37.28;;;21.75;;
49366;SDS011;35245;52.026;8.540;2022-11-20T01:11:09;39.92;;;22.60;;
49366;SDS011;35245;52.026;8.540;2022-11-20T01:13:39;31.33;;;20.73;;
49366;SDS011;35245;52.026;8.540;2022-11-20T01:16:08;34.22;;;19.92;;
49366;SDS011;35245;52.026;8.540;2022-11-20T01:18:38;34.42;;;19.90;;
49366;SDS011;35245;52.026;8.540;2022-11-20T01:21:09;49.38;;;29.85;;
49366;SDS011;35245;52.026;8.540;2022-11-20T01:23:38;35.28;;;22.00;;
49366;SDS011;35245;52.026;8.540;2022-11-20T01:26:10;36.33;;;21.20;;
49366;SDS011;35245;52.026;8.540;2022-11-20T01:28:40;37.67;;;19.17;;
49366;SDS011;35245;52.026;8.540;2022-11-20T01:31:11;32.63;;;20.27;;
49366;SDS011;35245;52.026;8.540;2022-11-20T01:33:40;40.38;;;21.70;;
49366;SDS011;35245;52.026;8.540;2022-11-20T01:36:09;31.77;;;20.08;;
49366;SDS011;35245;52.026;8.540;2022-11-20T01:38:37;32.63;;;19.42;;
49366;SDS011;35245;52.026;8.540;2022-11-20T01:41:05;31.98;;;19.60;;
49366;SDS011;35245;52.026;8.540;2022-11-20T01:43:35;31.08;;;19.08;;
49366;SDS011;35245;52.026;8.540;2022-11-20T01:46:03;28.77;;;18.85;;
49366;SDS011;35245;52.026;8.540;2022-11-20T01:48:49;33.88;;;20.63;;
49366;SDS011;35245;52.026;8.540;2022-11-20T01:51:25;31.52;;;19.63;;
49366;SDS011;35245;52.026;8.540;2022-11-20T01:53:59;31.58;;;17.95;;
49366;SDS011;35245;52.026;8.540;2022-11-20T01:56:35;28.33;;;17.92;;
49366;SDS011;35245;52.026;8.540;2022-11-20T01:59:09;31.17;;;18.77;;
49366;SDS011;35245;52.026;8.540;2022-11-20T02:04:06;37.00;;;20.20;;
49366;SDS011;35245;52.026;8.540;2022-11-20T02:06:35;35.50;;;20.95;;
49366;SDS011;35245;52.026;8.540;2022-11-20T02:09:08;33.53;;;20.20;;
49366;SDS011;35245;52.026;8.540;2022-11-20T02:11:36;33.53;;;21.00;;
49366;SDS011;35245;52.026;8.540;2022-11-20T02:14:04;36.45;;;20.38;;
49366;SDS011;35245;52.026;8.540;2022-11-20T02:16:33;37.60;;;21.15;;
49366;SDS011;35245;52.026;8.540;2022-11-20T02:19:05;31.48;;;19.58;;
49366;SDS011;35245;52.026;8.540;2022-11-20T02:21:42;38.63;;;22.25;;
49366;SDS011;35245;52.026;8.540;2022-11-20T02:24:17;35.10;;;21.15;;
49366;SDS011;35245;52.026;8.540;2022-11-20T02:26:47;32.55;;;19.63;;
49366;SDS011;35245;52.026;8.540;2022-11-20T02:29:19;35.90;;;21.23;;
49366;SDS011;35245;52.026;8.540;2022-11-20T02:31:52;37.22;;;21.42;;
49366;SDS011;35245;52.026;8.540;2022-11-20T02:34:22;37.28;;;21.27;;
49366;SDS011;35245;52.026;8.540;2022-11-20T02:36:50;34.15;;;21.63;;
49366;SDS011;35245;52.026;8.540;2022-11-20T02:39:20;32.97;;;20.45;;
49366;SDS011;35245;52.026;8.540;2022-11-20T02:44:18;32.30;;;19.77;;
49366;SDS011;35245;52.026;8.540;2022-11-20T02:46:46;37.65;;;20.63;;
49366;SDS011;35245;52.026;8.540;2022-11-20T02:49:13;36.38;;;21.15;;
49366;SDS011;35245;52.026;8.540;2022-11-20T02:51:41;36.92;;;21.88;;
49366;SDS011;35245;52.026;8.540;2022-11-20T02:54:08;36.13;;;20.50;;
49366;SDS011;35245;52.026;8.540;2022-11-20T02:56:38;33.70;;;20.63;;
49366;SDS011;35245;52.026;8.540;2022-11-20T02:59:06;37.47;;;23.00;;
49366;SDS011;35245;52.026;8.540;2022-11-20T03:01:33;37.08;;;21.75;;
49366;SDS011;35245;52.026;8.540;2022-11-20T03:04:01;33.00;;;20.98;;
49366;SDS011;35245;52.026;8.540;2022-11-20T03:06:28;31.48;;;21.02;;
49366;SDS011;35245;52.026;8.540;2022-11-20T03:08:56;33.80;;;19.92;;
49366;SDS011;35245;52.026;8.540;2022-11-20T03:11:23;33.20;;;20.67;;
49366;SDS011;35245;52.026;8.540;2022-11-20T03:13:52;35.08;;;20.65;;
49366;SDS011;35245;52.026;8.540;2022-11-20T03:16:20;38.95;;;22.00;;
49366;SDS011;35245;52.026;8.540;2022-11-20T03:18:49;31.63;;;19.35;;
49366;SDS011;35245;52.026;8.540;2022-11-20T03:21:18;29.25;;;19.20;;
49366;SDS011;35245;52.026;8.540;2022-11-20T03:23:45;31.95;;;19.20;;
49366;SDS011;35245;52.026;8.540;2022-11-20T03:26:14;30.05;;;18.08;;
49366;SDS011;35245;52.026;8.540;2022-11-20T03:28:46;27.63;;;17.20;;
49366;SDS011;35245;52.026;8.540;2022-11-20T03:31:18;30.92;;;19.00;;
49366;SDS011;35245;52.026;8.540;2022-11-20T03:33:48;29.25;;;16.98;;
49366;SDS011;35245;52.026;8.540;2022-11-20T03:36:16;34.78;;;18.60;;
49366;SDS011;35245;52.026;8.540;2022-11-20T03:38:45;30.58;;;17.98;;
49366;SDS011;35245;52.026;8.540;2022-11-20T03:41:13;30.15;;;17.55;;
49366;SDS011;35245;52.026;8.540;2022-11-20T03:43:46;25.27;;;17.30;;
49366;SDS011;35245;52.026;8.540;2022-11-20T03:46:15;26.90;;;16.47;;
49366;SDS011;35245;52.026;8.540;2022-11-20T03:48:44;29.35;;;17.83;;
49366;SDS011;35245;52.026;8.540;2022-11-20T03:51:11;26.52;;;16.30;;
49366;SDS011;35245;52.026;8.540;2022-11-20T03:53:41;27.85;;;16.95;;
49366;SDS011;35245;52.026;8.540;2022-11-20T03:56:11;25.95;;;16.50;;
49366;SDS011;35245;52.026;8.540;2022-11-20T03:58:40;29.52;;;17.67;;
49366;SDS011;35245;52.026;8.540;2022-11-20T04:01:09;26.52;;;16.95;;
49366;SDS011;35245;52.026;8.540;2022-11-20T04:03:40;29.08;;;16.75;;
49366;SDS011;35245;52.026;8.540;2022-11-20T04:06:10;26.77;;;16.25;;
49366;SDS011;35245;52.026;8.540;2022-11-20T04:08:40;27.58;;;16.80;;
49366;SDS011;35245;52.026;8.540;2022-11-20T04:11:11;25.80;;;16.67;;
49366;SDS011;35245;52.026;8.540;2022-11-20T04:13:40;26.67;;;16.35;;
49366;SDS011;35245;52.026;8.540;2022-11-20T04:16:11;29.47;;;17.07;;
49366;SDS011;35245;52.026;8.540;2022-11-20T04:18:40;26.13;;;16.50;;
49366;SDS011;35245;52.026;8.540;2022-11-20T04:21:08;29.35;;;17.23;;
49366;SDS011;35245;52.026;8.540;2022-11-20T04:23:36;26.38;;;15.55;;
49366;SDS011;35245;52.026;8.540;2022-11-20T04:26:04;30.48;;;18.55;;
49366;SDS011;35245;52.026;8.540;2022-11-20T04:28:34;27.67;;;16.83;;
49366;SDS011;35245;52.026;8.540;2022-11-20T04:31:02;30.10;;;17.50;;
49366;SDS011;35245;52.026;8.540;2022-11-20T04:33:31;27.85;;;17.00;;
49366;SDS011;35245;52.026;8.540;2022-11-20T04:36:03;29.23;;;16.85;;
49366;SDS011;35245;52.026;8.540;2022-11-20T04:38:35;25.48;;;16.83;;
49366;SDS011;35245;52.026;8.540;2022-11-20T04:41:03;25.65;;;16.48;;
49366;SDS011;35245;52.026;8.540;2022-11-20T04:43:33;26.52;;;15.82;;
49366;SDS011;35245;52.026;8.540;2022-11-20T04:46:01;27.17;;;16.00;;
49366;SDS011;35245;52.026;8.540;2022-11-20T04:48:28;26.35;;;15.73;;
49366;SDS011;35245;52.026;8.540;2022-11-20T04:50:56;26.92;;;16.25;;
49366;SDS011;35245;52.026;8.540;2022-11-20T04:53:25;27.50;;;17.17;;
49366;SDS011;35245;52.026;8.540;2022-11-20T04:55:53;25.27;;;16.15;;
49366;SDS011;35245;52.026;8.540;2022-11-20T04:58:26;28.38;;;16.88;;
49366;SDS011;35245;52.026;8.540;2022-11-20T05:00:53;25.60;;;16.38;;
49366;SDS011;35245;52.026;8.540;2022-11-20T05:03:29;27.05;;;17.35;;
49366;SDS011;35245;52.026;8.540;2022-11-20T05:05:56;29.25;;;16.63;;
49366;SDS011;35245;52.026;8.540;2022-11-20T05:08:28;29.85;;;17.42;;
49366;SDS011;35245;52.026;8.540;2022-11-20T05:10:59;26.45;;;15.60;;
49366;SDS011;35245;52.026;8.540;2022-11-20T05:13:27;27.73;;;16.92;;
49366;SDS011;35245;52.026;8.540;2022-11-20T05:15:55;30.35;;;17.42;;
49366;SDS011;35245;52.026;8.540;2022-11-20T05:18:26;27.70;;;15.52;;
49366;SDS011;35245;52.026;8.540;2022-11-20T05:20:54;24.60;;;15.25;;
49366;SDS011;35245;52.026;8.540;2022-11-20T05:23:22;26.02;;;15.55;;
49366;SDS011;35245;52.026;8.540;2022-11-20T05:25:52;25.40;;;16.45;;
49366;SDS011;35245;52.026;8.540;2022-11-20T05:28:20;22.90;;;14.90;;
49366;SDS011;35245;52.026;8.540;2022-11-20T05:30:48;22.58;;;15.50;;
49366;SDS011;35245;52.026;8.540;2022-11-20T05:33:16;25.08;;;15.48;;
49366;SDS011;35245;52.026;8.540;2022-11-20T05:35:44;25.33;;;14.82;;
49366;SDS011;35245;52.026;8.540;2022-11-20T05:38:13;24.15;;;15.38;;
49366;SDS011;35245;52.026;8.540;2022-11-20T05:40:40;25.48;;;14.90;;
49366;SDS011;35245;52.026;8.540;2022-11-20T05:43:09;22.13;;;14.73;;
49366;SDS011;35245;52.026;8.540;2022-11-20T05:45:36;24.65;;;13.63;;
49366;SDS011;35245;52.026;8.540;2022-11-20T05:48:03;25.63;;;15.70;;
49366;SDS011;35245;52.026;8.540;2022-11-20T05:50:31;25.67;;;15.10;;
49366;SDS011;35245;52.026;8.540;2022-11-20T05:52:58;24.58;;;14.77;;
49366;SDS011;35245;52.026;8.540;2022-11-20T05:55:26;21.88;;;13.23;;
49366;SDS011;35245;52.026;8.540;2022-11-20T05:57:53;24.08;;;13.15;;
49366;SDS011;35245;52.026;8.540;2022-11-20T06:00:22;21.08;;;13.30;;
49366;SDS011;35245;52.026;8.540;2022-11-20T06:02:49;26.10;;;15.02;;
49366;SDS011;35245;52.026;8.540;2022-11-20T06:05:16;25.27;;;14.80;;
49366;SDS011;35245;52.026;8.540;2022-11-20T06:07:44;23.30;;;14.30;;
49366;SDS011;35245;52.026;8.540;2022-11-20T06:10:11;20.75;;;13.63;;
49366;SDS011;35245;52.026;8.540;2022-11-20T06:12:38;23.98;;;14.43;;
49366;SDS011;35245;52.026;8.540;2022-11-20T06:15:05;22.83;;;14.07;;
49366;SDS011;35245;52.026;8.540;2022-11-20T06:17:35;22.45;;;14.43;;
49366;SDS011;35245;52.026;8.540;2022-11-20T06:20:02;23.70;;;13.10;;
49366;SDS011;35245;52.026;8.540;2022-11-20T06:22:31;23.55;;;14.18;;
49366;SDS011;35245;52.026;8.540;2022-11-20T06:24:59;21.73;;;13.40;;
49366;SDS011;35245;52.026;8.540;2022-11-20T06:27:26;22.98;;;13.35;;
49366;SDS011;35245;52.026;8.540;2022-11-20T06:29:53;21.00;;;12.98;;
49366;SDS011;35245;52.026;8.540;2022-11-20T06:32:21;20.08;;;11.93;;
49366;SDS011;35245;52.026;8.540;2022-11-20T06:34:49;23.23;;;13.18;;
49366;SDS011;35245;52.026;8.540;2022-11-20T06:37:16;22.73;;;12.02;;
49366;SDS011;35245;52.026;8.540;2022-11-20T06:39:44;19.08;;;12.20;;
49366;SDS011;35245;52.026;8.540;2022-11-20T06:42:11;17.83;;;10.45;;
49366;SDS011;35245;52.026;8.540;2022-11-20T06:44:38;16.58;;;10.43;;
49366;SDS011;35245;52.026;8.540;2022-11-20T06:47:06;15.13;;;9.43;;
49366;SDS011;35245;52.026;8.540;2022-11-20T06:49:33;18.92;;;10.98;;
49366;SDS011;35245;52.026;8.540;2022-11-20T06:52:03;17.85;;;10.98;;
49366;SDS011;35245;52.026;8.540;2022-11-20T06:54:30;14.73;;;9.27;;
49366;SDS011;35245;52.026;8.540;2022-11-20T06:56:58;20.05;;;12.27;;
49366;SDS011;35245;52.026;8.540;2022-11-20T06:59:25;17.30;;;10.48;;
49366;SDS011;35245;52.026;8.540;2022-11-20T07:01:52;19.20;;;10.13;;
49366;SDS011;35245;52.026;8.540;2022-11-20T07:04:19;18.52;;;10.60;;
49366;SDS011;35245;52.026;8.540;2022-11-20T07:06:46;16.42;;;9.93;;
49366;SDS011;35245;52.026;8.540;2022-11-20T07:09:15;18.55;;;10.73;;
49366;SDS011;35245;52.026;8.540;2022-11-20T07:11:43;18.33;;;10.70;;
49366;SDS011;35245;52.026;8.540;2022-11-20T07:14:10;22.05;;;10.82;;
49366;SDS011;35245;52.026;8.540;2022-11-20T07:16:37;18.30;;;10.77;;
49366;SDS011;35245;52.026;8.540;2022-11-20T07:19:04;21.63;;;11.32;;
49366;SDS011;35245;52.026;8.540;2022-11-20T07:21:31;23.73;;;12.00;;
49366;SDS011;35245;52.026;8.540;2022-11-20T07:23:58;19.92;;;12.15;;
49366;SDS011;35245;52.026;8.540;2022-11-20T07:26:27;27.08;;;14.50;;
49366;SDS011;35245;52.026;8.540;2022-11-20T07:28:55;27.70;;;14.88;;
49366;SDS011;35245;52.026;8.540;2022-11-20T07:31:22;29.30;;;15.70;;
49366;SDS011;35245;52.026;8.540;2022-11-20T07:33:49;27.23;;;14.93;;
49366;SDS011;35245;52.026;8.540;2022-11-20T07:36:17;34.83;;;16.50;;
49366;SDS011;35245;52.026;8.540;2022-11-20T07:38:44;33.15;;;16.58;;
49366;SDS011;35245;52.026;8.540;2022-11-20T07:41:11;41.13;;;18.90;;
49366;SDS011;35245;52.026;8.540;2022-11-20T07:43:39;43.80;;;18.65;;
49366;SDS011;35245;52.026;8.540;2022-11-20T07:46:07;42.47;;;18.40;;
49366;SDS011;35245;52.026;8.540;2022-11-20T07:48:34;39.47;;;17.90;;
49366;SDS011;35245;52.026;8.540;2022-11-20T07:51:01;38.17;;;17.67;;
49366;SDS011;35245;52.026;8.540;2022-11-20T07:53:28;40.42;;;20.20;;
49366;SDS011;35245;52.026;8.540;2022-11-20T07:55:58;49.72;;;20.27;;
49366;SDS011;35245;52.026;8.540;2022-11-20T07:58:27;44.33;;;20.63;;
49366;SDS011;35245;52.026;8.540;2022-11-20T08:01:01;44.20;;;20.23;;
49366;SDS011;35245;52.026;8.540;2022-11-20T08:03:30;38.47;;;19.67;;
49366;SDS011;35245;52.026;8.540;2022-11-20T08:05:58;38.70;;;20.30;;
49366;SDS011;35245;52.026;8.540;2022-11-20T08:08:26;33.28;;;17.25;;
49366;SDS011;35245;52.026;8.540;2022-11-20T08:10:56;37.55;;;19.10;;
49366;SDS011;35245;52.026;8.540;2022-11-20T08:13:45;37.88;;;20.30;;
49366;SDS011;35245;52.026;8.540;2022-11-20T08:16:31;30.85;;;17.85;;
49366;SDS011;35245;52.026;8.540;2022-11-20T08:18:58;33.17;;;18.48;;
49366;SDS011;35245;52.026;8.540;2022-11-20T08:21:25;32.47;;;18.00;;
49366;SDS011;35245;52.026;8.540;2022-11-20T08:23:52;31.63;;;18.40;;
49366;SDS011;35245;52.026;8.540;2022-11-20T08:26:20;32.42;;;18.50;;
49366;SDS011;35245;52.026;8.540;2022-11-20T08:28:48;32.92;;;19.50;;
49366;SDS011;35245;52.026;8.540;2022-11-20T08:31:15;36.05;;;18.70;;
49366;SDS011;35245;52.026;8.540;2022-11-20T08:33:44;31.05;;;18.35;;
49366;SDS011;35245;52.026;8.540;2022-11-20T08:36:11;31.40;;;17.98;;
49366;SDS011;35245;52.026;8.540;2022-11-20T08:38:38;30.38;;;17.73;;
49366;SDS011;35245;52.026;8.540;2022-11-20T08:41:06;32.03;;;18.95;;
49366;SDS011;35245;52.026;8.540;2022-11-20T08:43:52;29.60;;;17.05;;
49366;SDS011;35245;52.026;8.540;2022-11-20T08:46:23;27.70;;;16.20;;
49366;SDS011;35245;52.026;8.540;2022-11-20T08:48:52;27.42;;;15.43;;
49366;SDS011;35245;52.026;8.540;2022-11-20T08:51:20;26.42;;;16.25;;
49366;SDS011;35245;52.026;8.540;2022-11-20T08:53:47;35.42;;;20.23;;
49366;SDS011;35245;52.026;8.540;2022-11-20T08:56:15;46.28;;;24.25;;
49366;SDS011;35245;52.026;8.540;2022-11-20T08:58:43;53.97;;;26.92;;
49366;SDS011;35245;52.026;8.540;2022-11-20T09:01:10;50.65;;;28.48;;
49366;SDS011;35245;52.026;8.540;2022-11-20T09:03:37;50.88;;;26.55;;
49366;SDS011;35245;52.026;8.540;2022-11-20T09:06:06;47.78;;;26.33;;
49366;SDS011;35245;52.026;8.540;2022-11-20T09:08:34;40.88;;;21.48;;
49366;SDS011;35245;52.026;8.540;2022-11-20T09:11:02;35.35;;;19.73;;
49366;SDS011;35245;52.026;8.540;2022-11-20T09:13:30;37.83;;;19.70;;
49366;SDS011;35245;52.026;8.540;2022-11-20T09:16:00;42.85;;;22.52;;
49366;SDS011;35245;52.026;8.540;2022-11-20T09:18:30;41.08;;;21.65;;
49366;SDS011;35245;52.026;8.540;2022-11-20T09:20:59;36.35;;;18.40;;
49366;SDS011;35245;52.026;8.540;2022-11-20T09:23:32;26.88;;;14.73;;
49366;SDS011;35245;52.026;8.540;2022-11-20T09:26:01;21.98;;;13.05;;
49366;SDS011;35245;52.026;8.540;2022-11-20T09:28:29;19.83;;;11.80;;
49366;SDS011;35245;52.026;8.540;2022-11-20T09:30:57;18.42;;;11.55;;
49366;SDS011;35245;52.026;8.540;2022-11-20T09:33:24;15.77;;;9.82;;
49366;SDS011;35245;52.026;8.540;2022-11-20T09:35:52;15.73;;;10.95;;
49366;SDS011;35245;52.026;8.540;2022-11-20T09:38:19;14.10;;;9.05;;
49366;SDS011;35245;52.026;8.540;2022-11-20T09:40:49;15.55;;;9.27;;
49366;SDS011;35245;52.026;8.540;2022-11-20T09:43:25;14.52;;;9.48;;
49366;SDS011;35245;52.026;8.540;2022-11-20T09:46:05;15.68;;;9.63;;
49366;SDS011;35245;52.026;8.540;2022-11-20T09:51:49;14.25;;;9.23;;
49366;SDS011;35245;52.026;8.540;2022-11-20T09:54:25;14.23;;;8.75;;
49366;SDS011;35245;52.026;8.540;2022-11-20T09:56:58;15.18;;;9.57;;
49366;SDS011;35245;52.026;8.540;2022-11-20T09:59:31;16.42;;;10.25;;
49366;SDS011;35245;52.026;8.540;2022-11-20T10:02:11;14.18;;;9.32;;
49366;SDS011;35245;52.026;8.540;2022-11-20T10:04:55;15.85;;;9.70;;
49366;SDS011;35245;52.026;8.540;2022-11-20T10:07:30;17.08;;;10.52;;
49366;SDS011;35245;52.026;8.540;2022-11-20T10:10:03;25.25;;;14.25;;
49366;SDS011;35245;52.026;8.540;2022-11-20T10:12:47;19.40;;;11.45;;
49366;SDS011;35245;52.026;8.540;2022-11-20T10:15:31;17.08;;;11.55;;
49366;SDS011;35245;52.026;8.540;2022-11-20T10:18:11;18.58;;;12.05;;
49366;SDS011;35245;52.026;8.540;2022-11-20T10:20:51;20.38;;;12.45;;
49366;SDS011;35245;52.026;8.540;2022-11-20T10:23:39;22.33;;;12.55;;
49366;SDS011;35245;52.026;8.540;2022-11-20T10:26:31;19.85;;;12.40;;
49366;SDS011;35245;52.026;8.540;2022-11-20T10:29:11;21.88;;;12.45;;
49366;SDS011;35245;52.026;8.540;2022-11-20T10:31:42;21.00;;;13.40;;
49366;SDS011;35245;52.026;8.540;2022-11-20T10:34:17;19.45;;;12.23;;
49366;SDS011;35245;52.026;8.540;2022-11-20T10:36:52;20.25;;;12.35;;
49366;SDS011;35245;52.026;8.540;2022-11-20T10:39:26;22.20;;;13.15;;
49366;SDS011;35245;52.026;8.540;2022-11-20T10:42:01;19.15;;;11.48;;
49366;SDS011;35245;52.026;8.540;2022-11-20T10:44:32;20.38;;;12.48;;
49366;SDS011;35245;52.026;8.540;2022-11-20T10:47:19;19.20;;;12.63;;
49366;SDS011;35245;52.026;8.540;2022-11-20T10:49:48;18.77;;;11.73;;
49366;SDS011;35245;52.026;8.540;2022-11-20T10:52:19;19.48;;;11.23;;
49366;SDS011;35245;52.026;8.540;2022-11-20T10:54:57;19.67;;;11.18;;
49366;SDS011;35245;52.026;8.540;2022-11-20T10:57:41;19.25;;;12.23;;
49366;SDS011;35245;52.026;8.540;2022-11-20T11:00:22;20.48;;;11.88;;
49366;SDS011;35245;52.026;8.540;2022-11-20T11:02:50;17.98;;;11.38;;
49366;SDS011;35245;52.026;8.540;2022-11-20T11:05:27;19.73;;;12.30;;
49366;SDS011;35245;52.026;8.540;2022-11-20T11:08:04;17.80;;;10.88;;
49366;SDS011;35245;52.026;8.540;2022-11-20T11:10:42;18.88;;;11.07;;
49366;SDS011;35245;52.026;8.540;2022-11-20T11:13:20;18.02;;;10.55;;
49366;SDS011;35245;52.026;8.540;2022-11-20T11:15:50;18.63;;;10.93;;
49366;SDS011;35245;52.026;8.540;2022-11-20T11:18:22;17.38;;;10.23;;
49366;SDS011;35245;52.026;8.540;2022-11-20T11:20:51;15.40;;;10.25;;
49366;SDS011;35245;52.026;8.540;2022-11-20T11:23:31;16.48;;;10.18;;
49366;SDS011;35245;52.026;8.540;2022-11-20T11:26:02;15.85;;;10.13;;
49366;SDS011;35245;52.026;8.540;2022-11-20T11:28:32;12.43;;;8.27;;
49366;SDS011;35245;52.026;8.540;2022-11-20T11:31:02;12.40;;;8.18;;
49366;SDS011;35245;52.026;8.540;2022-11-20T11:33:30;11.32;;;7.57;;
49366;SDS011;35245;52.026;8.540;2022-11-20T11:36:00;12.02;;;7.90;;
49366;SDS011;35245;52.026;8.540;2022-11-20T11:38:30;12.05;;;7.63;;
49366;SDS011;35245;52.026;8.540;2022-11-20T11:41:03;11.27;;;7.97;;
49366;SDS011;35245;52.026;8.540;2022-11-20T11:43:34;10.52;;;7.60;;
49366;SDS011;35245;52.026;8.540;2022-11-20T11:46:29;10.93;;;7.50;;
49366;SDS011;35245;52.026;8.540;2022-11-20T11:49:00;10.43;;;7.80;;
49366;SDS011;35245;52.026;8.540;2022-11-20T11:51:39;9.50;;;6.85;;
49366;SDS011;35245;52.026;8.540;2022-11-20T11:54:28;8.77;;;6.63;;
49366;SDS011;35245;52.026;8.540;2022-11-20T11:57:05;10.52;;;7.50;;
49366;SDS011;35245;52.026;8.540;2022-11-20T11:59:44;9.57;;;7.28;;
49366;SDS011;35245;52.026;8.540;2022-11-20T12:02:26;9.77;;;7.38;;
49366;SDS011;35245;52.026;8.540;2022-11-20T12:05:03;9.23;;;6.85;;
49366;SDS011;35245;52.026;8.540;2022-11-20T12:07:43;10.88;;;6.93;;
49366;SDS011;35245;52.026;8.540;2022-11-20T12:10:15;9.90;;;7.57;;
49366;SDS011;35245;52.026;8.540;2022-11-20T12:12:50;9.43;;;7.30;;
49366;SDS011;35245;52.026;8.540;2022-11-20T12:15:24;9.68;;;7.68;;
49366;SDS011;35245;52.026;8.540;2022-11-20T12:17:57;12.02;;;7.85;;
49366;SDS011;35245;52.026;8.540;2022-11-20T12:20:25;11.20;;;7.53;;
49366;SDS011;35245;52.026;8.540;2022-11-20T12:23:01;11.32;;;7.50;;
49366;SDS011;35245;52.026;8.540;2022-11-20T12:25:40;14.10;;;7.85;;
49366;SDS011;35245;52.026;8.540;2022-11-20T12:28:16;11.80;;;8.23;;
49366;SDS011;35245;52.026;8.540;2022-11-20T12:31:10;11.85;;;7.80;;
49366;SDS011;35245;52.026;8.540;2022-11-20T12:36:44;10.00;;;7.00;;
49366;SDS011;35245;52.026;8.540;2022-11-20T12:39:41;10.82;;;7.45;;
49366;SDS011;35245;52.026;8.540;2022-11-20T12:45:42;11.27;;;7.68;;
49366;SDS011;35245;52.026;8.540;2022-11-20T12:48:47;11.85;;;8.07;;
49366;SDS011;35245;52.026;8.540;2022-11-20T12:51:53;10.70;;;7.55;;
49366;SDS011;35245;52.026;8.540;2022-11-20T12:54:53;11.98;;;7.70;;
49366;SDS011;35245;52.026;8.540;2022-11-20T12:57:50;11.38;;;7.75;;
49366;SDS011;35245;52.026;8.540;2022-11-20T13:00:22;13.35;;;7.38;;
49366;SDS011;35245;52.026;8.540;2022-11-20T13:03:06;13.50;;;9.10;;
49366;SDS011;35245;52.026;8.540;2022-11-20T13:06:09;12.77;;;8.02;;
49366;SDS011;35245;52.026;8.540;2022-11-20T13:08:42;16.27;;;9.13;;
49366;SDS011;35245;52.026;8.540;2022-11-20T13:11:18;12.95;;;8.80;;
49366;SDS011;35245;52.026;8.540;2022-11-20T13:14:00;13.45;;;9.07;;
49366;SDS011;35245;52.026;8.540;2022-11-20T13:16:45;13.27;;;8.27;;
49366;SDS011;35245;52.026;8.540;2022-11-20T13:19:18;12.65;;;8.10;;
49366;SDS011;35245;52.026;8.540;2022-11-20T13:21:48;16.88;;;9.02;;
49366;SDS011;35245;52.026;8.540;2022-11-20T13:27:05;14.25;;;8.73;;
49366;SDS011;35245;52.026;8.540;2022-11-20T13:29:46;15.82;;;9.00;;
49366;SDS011;35245;52.026;8.540;2022-11-20T13:32:27;14.93;;;8.40;;
49366;SDS011;35245;52.026;8.540;2022-11-20T13:34:58;13.65;;;8.52;;
49366;SDS011;35245;52.026;8.540;2022-11-20T13:37:30;14.35;;;9.05;;
49366;SDS011;35245;52.026;8.540;2022-11-20T13:40:20;16.15;;;8.32;;
49366;SDS011;35245;52.026;8.540;2022-11-20T13:42:55;16.05;;;9.23;;
49366;SDS011;35245;52.026;8.540;2022-11-20T13:45:29;15.40;;;9.70;;
49366;SDS011;35245;52.026;8.540;2022-11-20T13:47:59;14.77;;;9.40;;
49366;SDS011;35245;52.026;8.540;2022-11-20T13:50:42;17.08;;;10.20;;
49366;SDS011;35245;52.026;8.540;2022-11-20T13:53:23;15.90;;;9.45;;
49366;SDS011;35245;52.026;8.540;2022-11-20T13:56:05;16.27;;;10.10;;
49366;SDS011;35245;52.026;8.540;2022-11-20T13:58:44;15.82;;;10.30;;
49366;SDS011;35245;52.026;8.540;2022-11-20T14:01:23;17.92;;;10.55;;
49366;SDS011;35245;52.026;8.540;2022-11-20T14:03:52;15.98;;;10.10;;
49366;SDS011;35245;52.026;8.540;2022-11-20T14:06:23;16.25;;;10.43;;
49366;SDS011;35245;52.026;8.540;2022-11-20T14:08:55;17.00;;;10.55;;
49366;SDS011;35245;52.026;8.540;2022-11-20T14:11:24;19.48;;;11.18;;
49366;SDS011;35245;52.026;8.540;2022-11-20T14:13:57;19.65;;;11.95;;
49366;SDS011;35245;52.026;8.540;2022-11-20T14:16:28;19.40;;;11.55;;
49366;SDS011;35245;52.026;8.540;2022-11-20T14:19:24;18.02;;;11.98;;
49366;SDS011;35245;52.026;8.540;2022-11-20T14:22:06;19.60;;;12.05;;
49366;SDS011;35245;52.026;8.540;2022-11-20T14:24:38;21.23;;;12.55;;
49366;SDS011;35245;52.026;8.540;2022-11-20T14:27:09;20.80;;;12.73;;
49366;SDS011;35245;52.026;8.540;2022-11-20T14:29:40;20.92;;;12.90;;
49366;SDS011;35245;52.026;8.540;2022-11-20T14:32:09;21.23;;;12.98;;
49366;SDS011;35245;52.026;8.540;2022-11-20T14:34:37;23.67;;;14.38;;
49366;SDS011;35245;52.026;8.540;2022-11-20T14:37:10;22.52;;;13.75;;
49366;SDS011;35245;52.026;8.540;2022-11-20T14:39:48;26.02;;;14.73;;
49366;SDS011;35245;52.026;8.540;2022-11-20T14:42:19;26.98;;;14.77;;
49366;SDS011;35245;52.026;8.540;2022-11-20T14:44:48;30.13;;;15.77;;
49366;SDS011;35245;52.026;8.540;2022-11-20T14:47:19;24.02;;;15.38;;
49366;SDS011;35245;52.026;8.540;2022-11-20T14:49:51;26.73;;;14.45;;
49366;SDS011;35245;52.026;8.540;2022-11-20T14:52:21;24.05;;;14.35;;
49366;SDS011;35245;52.026;8.540;2022-11-20T14:54:51;24.83;;;14.77;;
49366;SDS011;35245;52.026;8.540;2022-11-20T14:57:21;24.25;;;15.00;;
49366;SDS011;35245;52.026;8.540;2022-11-20T15:00:02;22.75;;;14.10;;
49366;SDS011;35245;52.026;8.540;2022-11-20T15:02:45;23.27;;;14.43;;
49366;SDS011;35245;52.026;8.540;2022-11-20T15:05:14;25.55;;;14.90;;
49366;SDS011;35245;52.026;8.540;2022-11-20T15:07:44;29.38;;;16.95;;